Royalton, Vermont
Current Conditions -  °F | °C
As of 2:53 AM on Thursday 23 Oct 2014 (Local Time) from KLEB Reporting Station
Light Rain Light Rain  
Wind Chill: 50°   Ceiling: 2700
Heat Index: 50°   Visibility: 8mi
Dew Point: 45°   Wind: 9mph
Humidity: 83%   Direction: 10°N
Pressure: 29.9"   Gusts: NA
Location:  43.7658°N, 72.5431°W
Report Text: KLEB 230653Z AUTO 01008KT 8SM -RA SCT012 OVC027 10/07 A2990 RMK AO2 SLP125 P0000 T01000072
Loading
Personal Weather Stations






























Interactive Weather Map
Tropical Storm Tracking
New forecast layout! Learn more

10-Day Weather Forecast

Advertisements
Track Severe Weather on mobile